KEVB

New Smyrna Beach Municipal Airport

New Smyrna Beach, Florida, USA
METAR KEVB 230247Z 16005KT 10SM SKC 20/18 A3008 RMK LAST
Observed Flight Rules
Jan-23 @ 02:47 UTC (9 hours ago) Visual Flight Rules
Wind Visibility Clouds
160° at 5 knots 10 miles
  • Clear skies
Temperatures Readings
Current 20°C / 68°F
Dewpoint 18°C / 64°F
Humidity 88%
Altimeter 30.08" Hg
Pressure 1019 hPa
Elevation 3
METAR KEVB 230247Z 16005KT 10SM SKC 20/18 A3008 RMK LAST
Observed Flight Rules
Jan-23 @ 02:47 UTC
(9 hours ago)
VFR
Wind Visibility
160° at 5 knots 10 miles
Clouds
  • Clear skies
Temperature Dewpoint
20°C / 68°F 18°C / 64°F
Humidity Altimeter Pressure
88% 30.08" Hg 1019 hPa